createdAt,value
2024-04-23T00:01:58.855Z,0.85
2024-04-23T00:04:03.699Z,0.80
2024-04-23T00:06:08.629Z,0.75
2024-04-23T00:08:10.827Z,0.71
2024-04-23T00:10:15.626Z,0.68
2024-04-23T00:12:17.953Z,0.63
2024-04-23T00:14:22.761Z,0.59
2024-04-23T00:16:25.008Z,0.56
2024-04-23T00:18:27.309Z,0.54
2024-04-23T00:20:32.374Z,0.51
2024-04-23T00:22:37.200Z,0.48
2024-04-23T00:24:42.020Z,0.47
2024-04-23T00:26:52.715Z,0.44
2024-04-23T00:28:57.571Z,0.43
2024-04-23T00:30:59.807Z,0.40
2024-04-23T00:33:07.642Z,0.39
2024-04-23T00:35:09.986Z,0.37
2024-04-23T00:37:14.778Z,0.35
2024-04-23T00:39:19.556Z,0.32
2024-04-23T00:41:24.340Z,0.32
2024-04-23T00:43:26.567Z,0.28
2024-04-23T00:45:35.354Z,0.26
2024-04-23T00:47:37.606Z,0.25
2024-04-23T00:49:42.550Z,0.25
2024-04-23T00:51:50.625Z,0.24
2024-04-23T00:53:55.887Z,0.25
2024-04-23T00:56:00.878Z,0.24
2024-04-23T00:58:06.155Z,0.23
2024-04-23T01:00:09.033Z,0.20
2024-04-23T01:02:13.813Z,0.18
2024-04-23T01:04:15.964Z,0.16
2024-04-23T01:06:20.934Z,0.15
2024-04-23T01:08:23.226Z,0.15
2024-04-23T01:10:28.185Z,0.12
2024-04-23T01:12:33.147Z,0.10
2024-04-23T01:14:41.190Z,0.09
2024-04-23T01:16:46.230Z,0.08
2024-04-23T01:18:51.832Z,0.06
2024-04-23T01:20:58.897Z,0.04
2024-04-23T01:23:10.147Z,0.05
2024-04-23T01:25:15.080Z,0.04
2024-04-23T01:27:23.466Z,0.06
2024-04-23T01:29:27.056Z,0.07
2024-04-23T01:31:29.380Z,0.07
2024-04-23T01:33:34.504Z,0.09
2024-04-23T01:35:37.251Z,0.09
2024-04-23T01:37:44.698Z,0.07
2024-04-23T01:39:47.150Z,0.05
2024-04-23T01:41:52.360Z,0.02
2024-04-23T01:43:57.754Z,0.04
2024-04-23T01:46:04.652Z,0.03
2024-04-23T01:48:08.680Z,0.03
2024-04-23T01:50:13.572Z,0.02
2024-04-23T01:52:16.295Z,-0.01
2024-04-23T01:54:21.146Z,-0.03
2024-04-23T01:56:23.432Z,-0.05
2024-04-23T01:58:28.318Z,-0.06
2024-04-23T02:00:37.221Z,-0.08
2024-04-23T02:02:44.278Z,-0.08
2024-04-23T02:04:47.333Z,-0.08
2024-04-23T02:06:53.089Z,-0.09
2024-04-23T02:08:56.119Z,-0.11
2024-04-23T02:11:01.540Z,-0.12
2024-04-23T02:13:05.673Z,-0.13
2024-04-23T02:15:11.245Z,-0.14
2024-04-23T02:17:18.326Z,-0.16
2024-04-23T02:19:23.285Z,-0.18
2024-04-23T02:21:25.456Z,-0.20
2024-04-23T02:23:30.230Z,-0.21
2024-04-23T02:25:32.546Z,-0.23
2024-04-23T02:27:37.337Z,-0.24
2024-04-23T02:29:39.468Z,-0.25
2024-04-23T02:31:44.311Z,-0.26
2024-04-23T02:33:49.830Z,-0.28
2024-04-23T02:35:54.667Z,-0.30
2024-04-23T02:37:56.980Z,-0.33
2024-04-23T02:40:04.693Z,-0.36
2024-04-23T02:42:08.468Z,-0.37
2024-04-23T02:44:13.231Z,-0.37
2024-04-23T02:46:15.432Z,-0.39
2024-04-23T02:48:20.267Z,-0.41
2024-04-23T02:50:25.134Z,-0.41
2024-04-23T02:52:30.024Z,-0.41
2024-04-23T02:54:32.279Z,-0.41
2024-04-23T02:56:37.122Z,-0.40
2024-04-23T02:58:39.378Z,-0.39
2024-04-23T03:00:44.202Z,-0.40
2024-04-23T03:02:46.537Z,-0.40
2024-04-23T03:04:51.449Z,-0.41
2024-04-23T03:06:56.291Z,-0.40
2024-04-23T03:09:01.025Z,-0.42
2024-04-23T03:11:03.356Z,-0.44
2024-04-23T03:13:08.448Z,-0.45
2024-04-23T03:15:10.737Z,-0.47
2024-04-23T03:17:15.536Z,-0.49
2024-04-23T03:19:17.761Z,-0.51
2024-04-23T03:21:22.556Z,-0.53
2024-04-23T03:23:27.340Z,-0.53
2024-04-23T03:25:32.204Z,-0.55
2024-04-23T03:27:34.393Z,-0.57
2024-04-23T03:29:39.209Z,-0.57
2024-04-23T03:31:41.490Z,-0.59
2024-04-23T03:33:47.086Z,-0.61
2024-04-23T03:35:49.295Z,-0.62
2024-04-23T03:37:54.167Z,-0.62
2024-04-23T03:39:59.050Z,-0.63
2024-04-23T03:42:04.522Z,-0.63
2024-04-23T03:44:06.819Z,-0.64
2024-04-23T03:46:11.630Z,-0.63
2024-04-23T03:48:16.490Z,-0.62
2024-04-23T03:50:18.913Z,-0.63
2024-04-23T03:52:27.530Z,-0.63
2024-04-23T03:54:29.786Z,-0.63
2024-04-23T03:56:37.144Z,-0.62
2024-04-23T03:58:39.288Z,-0.62
2024-04-23T04:00:44.110Z,-0.62
2024-04-23T04:03:13.380Z,-0.62
2024-04-23T04:05:35.364Z,-0.63
2024-04-23T04:07:40.192Z,-0.62
2024-04-23T04:09:42.335Z,-0.61
2024-04-23T04:11:49.802Z,-0.59
2024-04-23T04:13:54.624Z,-0.55
2024-04-23T04:15:56.915Z,-0.51
2024-04-23T04:18:01.959Z,-0.45
2024-04-23T04:20:04.566Z,-0.38
2024-04-23T04:22:09.442Z,-0.31
2024-04-23T04:24:11.598Z,-0.22
2024-04-23T04:26:17.368Z,-0.14
2024-04-23T04:28:22.206Z,-0.04
2024-04-23T04:30:26.956Z,0.05
2024-04-23T04:32:31.550Z,0.13
2024-04-23T04:34:36.384Z,0.23
2024-04-23T04:36:38.801Z,0.33
2024-04-23T04:38:43.736Z,0.43
2024-04-23T04:40:46.191Z,0.52
2024-04-23T04:42:52.498Z,0.60
2024-04-23T04:44:57.332Z,0.69
2024-04-23T04:47:04.036Z,0.79
2024-04-23T04:49:07.156Z,0.88
2024-04-23T04:51:11.972Z,0.97
2024-04-23T04:53:14.131Z,1.06
2024-04-23T04:55:19.005Z,1.12
2024-04-23T04:57:21.247Z,1.20
2024-04-23T04:59:25.985Z,1.27
2024-04-23T05:01:30.818Z,1.34
2024-04-23T05:03:35.705Z,1.39
2024-04-23T05:05:37.822Z,1.42
2024-04-23T05:07:42.831Z,1.45
2024-04-23T05:09:45.102Z,1.47
2024-04-23T05:11:49.939Z,1.50
2024-04-23T05:13:52.201Z,1.51
2024-04-23T05:15:57.008Z,1.52
2024-04-23T05:18:02.016Z,1.56
2024-04-23T05:20:08.827Z,1.59
2024-04-23T05:22:11.016Z,1.64
2024-04-23T05:24:15.792Z,1.70
2024-04-23T05:26:17.989Z,1.78
2024-04-23T05:28:22.755Z,1.87
2024-04-23T05:30:52.322Z,1.96
2024-04-23T05:32:54.519Z,2.12
2024-04-23T05:35:02.146Z,2.25
2024-04-23T05:37:08.323Z,2.41
2024-04-23T05:39:11.351Z,2.58
2024-04-23T05:41:16.135Z,2.71
2024-04-23T05:43:20.958Z,2.86
2024-04-23T05:45:25.746Z,2.96
2024-04-23T05:47:28.096Z,3.03
2024-04-23T05:50:10.580Z,3.13
2024-04-23T05:53:11.550Z,3.24
2024-04-23T05:55:36.948Z,3.33
2024-04-23T05:57:41.762Z,3.40
2024-04-23T05:59:43.913Z,3.49
2024-04-23T06:01:48.791Z,3.60
2024-04-23T06:03:50.933Z,3.73
2024-04-23T06:05:55.693Z,3.88
2024-04-23T06:07:59.030Z,4.00
2024-04-23T06:10:04.308Z,4.10
2024-04-23T06:12:09.565Z,4.18
2024-04-23T06:14:14.347Z,4.23
2024-04-23T06:16:16.501Z,4.28
2024-04-23T06:18:24.228Z,4.31
2024-04-23T06:20:26.478Z,4.34
2024-04-23T06:22:32.860Z,4.38
2024-04-23T06:24:34.999Z,4.42
2024-04-23T06:26:39.727Z,4.49
2024-04-23T06:28:44.517Z,4.54
2024-04-23T06:30:49.371Z,4.57
2024-04-23T06:32:51.637Z,4.59
2024-04-23T06:34:56.475Z,4.63
2024-04-23T06:36:58.698Z,4.68
2024-04-23T06:39:04.861Z,4.70
2024-04-23T06:41:07.043Z,4.72
2024-04-23T06:43:14.217Z,4.73
2024-04-23T06:45:19.965Z,4.74
2024-04-23T06:47:26.199Z,4.75
2024-04-23T06:49:28.518Z,4.78
2024-04-23T06:51:33.299Z,4.77
2024-04-23T06:53:35.563Z,4.73
2024-04-23T06:55:40.686Z,4.70
2024-04-23T06:57:43.961Z,4.68
2024-04-23T06:59:48.841Z,4.69
2024-04-23T07:01:53.784Z,4.69
2024-04-23T07:03:58.724Z,4.68
2024-04-23T07:06:00.929Z,4.65
2024-04-23T07:08:05.796Z,4.61
2024-04-23T07:10:09.299Z,4.56
2024-04-23T07:12:14.119Z,4.55
2024-04-23T07:14:16.279Z,4.57
2024-04-23T07:16:21.088Z,4.61
2024-04-23T07:18:26.102Z,4.66
2024-04-23T07:20:30.980Z,4.72
2024-04-23T07:22:33.268Z,4.77
2024-04-23T07:24:38.124Z,4.85
2024-04-23T07:26:40.974Z,4.97
2024-04-23T07:28:45.836Z,5.14
2024-04-23T07:30:50.283Z,5.32
2024-04-23T07:32:56.432Z,5.49
2024-04-23T07:35:01.517Z,5.63
2024-04-23T07:37:06.635Z,5.75
2024-04-23T07:39:09.534Z,5.86
2024-04-23T07:41:16.252Z,5.97
2024-04-23T07:43:18.583Z,6.04
2024-04-23T07:45:23.644Z,6.10
2024-04-23T07:47:25.947Z,6.16
2024-04-23T07:49:30.865Z,6.21
2024-04-23T07:51:35.714Z,6.27
2024-04-23T07:53:40.480Z,6.28
2024-04-23T07:55:42.721Z,6.31
2024-04-23T07:57:48.179Z,6.33
2024-04-23T07:59:50.800Z,6.31
2024-04-23T08:01:55.701Z,6.29
2024-04-23T08:03:57.893Z,6.23
2024-04-23T08:06:03.631Z,6.16
2024-04-23T08:08:08.822Z,6.08
2024-04-23T08:10:18.568Z,6.03
2024-04-23T08:12:20.783Z,6.07
2024-04-23T08:14:25.575Z,6.11
2024-04-23T08:16:27.887Z,6.17
2024-04-23T08:18:35.054Z,6.21
2024-04-23T08:20:39.556Z,6.24
2024-04-23T08:22:45.939Z,6.28
2024-04-23T08:24:50.748Z,6.35
2024-04-23T08:26:55.591Z,6.42
2024-04-23T08:28:57.940Z,6.42
2024-04-23T08:31:00.152Z,6.42
2024-04-23T08:33:05.061Z,6.42
2024-04-23T08:35:07.695Z,6.45
2024-04-23T08:37:13.139Z,6.47
2024-04-23T08:39:15.327Z,6.49
2024-04-23T08:41:25.181Z,6.48
2024-04-23T08:43:32.576Z,6.50
2024-04-23T08:45:41.663Z,6.53
2024-04-23T08:47:44.651Z,6.55
2024-04-23T08:49:50.925Z,6.62
2024-04-23T08:51:53.299Z,6.72
2024-04-23T08:53:58.745Z,6.76
2024-04-23T08:56:06.275Z,6.80
2024-04-23T08:58:14.506Z,6.85
2024-04-23T09:00:17.154Z,6.90
2024-04-23T09:02:30.095Z,6.95
2024-04-23T09:04:33.570Z,7.03
2024-04-23T09:06:38.828Z,7.08
2024-04-23T09:08:41.352Z,7.20
2024-04-23T09:10:46.651Z,7.33
2024-04-23T09:12:50.009Z,7.44
2024-04-23T09:14:59.183Z,7.59
2024-04-23T09:17:02.465Z,7.76
2024-04-23T09:19:07.296Z,7.82
2024-04-23T09:21:10.063Z,7.81
2024-04-23T09:23:14.882Z,7.79
2024-04-23T09:25:17.212Z,7.78
2024-04-23T09:27:22.041Z,7.81
2024-04-23T09:29:29.156Z,7.89
2024-04-23T09:31:39.441Z,7.93
2024-04-23T09:33:52.524Z,7.97
2024-04-23T09:36:06.685Z,8.03
2024-04-23T09:38:09.157Z,8.11
2024-04-23T09:40:14.621Z,8.15
2024-04-23T09:42:23.786Z,8.15
2024-04-23T09:44:29.128Z,8.18
2024-04-23T09:46:35.536Z,8.23
2024-04-23T09:48:41.159Z,8.28
2024-04-23T09:50:43.470Z,8.38
2024-04-23T09:52:48.304Z,8.45
2024-04-23T09:54:50.586Z,8.47
2024-04-23T09:57:04.182Z,8.49
2024-04-23T09:59:11.538Z,8.48
2024-04-23T10:01:19.447Z,8.52
2024-04-23T10:03:25.652Z,8.64
2024-04-23T10:05:31.539Z,8.78
2024-04-23T10:07:40.976Z,8.90
2024-04-23T10:09:46.440Z,9.06
2024-04-23T10:11:54.448Z,9.23
2024-04-23T10:14:05.960Z,9.38
2024-04-23T10:16:10.450Z,9.45
2024-04-23T10:18:22.324Z,9.47
2024-04-23T10:20:38.768Z,9.43
2024-04-23T10:22:44.428Z,9.42
2024-04-23T10:24:47.858Z,9.42
2024-04-23T10:26:53.282Z,9.47
2024-04-23T10:28:57.526Z,9.56
2024-04-23T10:31:02.988Z,9.64
2024-04-23T10:33:09.192Z,9.70
2024-04-23T10:35:17.525Z,9.80
2024-04-23T10:37:22.878Z,9.97
2024-04-23T10:39:28.451Z,10.12
2024-04-23T10:41:34.693Z,10.26
2024-04-23T10:43:40.087Z,10.39
2024-04-23T10:45:42.724Z,10.45
2024-04-23T10:47:56.869Z,10.43
2024-04-23T10:50:07.154Z,10.40
2024-04-23T10:52:12.332Z,10.34
2024-04-23T10:54:21.470Z,10.24
2024-04-23T10:56:27.367Z,10.11
2024-04-23T10:58:29.566Z,9.94
2024-04-23T11:00:38.700Z,9.75
2024-04-23T11:02:41.127Z,9.59
2024-04-23T11:04:49.470Z,9.45
2024-04-23T11:07:02.493Z,9.30
2024-04-23T11:09:23.556Z,9.12
2024-04-23T11:11:26.182Z,8.97
2024-04-23T11:13:29.887Z,8.84
2024-04-23T11:15:35.341Z,8.75
2024-04-23T11:17:41.859Z,8.68
2024-04-23T11:19:49.036Z,8.63
2024-04-23T11:21:52.974Z,8.61
2024-04-23T11:23:59.708Z,8.58
2024-04-23T11:26:04.998Z,8.60
2024-04-23T11:28:10.428Z,8.62
2024-04-23T11:30:14.984Z,8.64
2024-04-23T11:32:20.638Z,8.67
2024-04-23T11:34:24.398Z,8.70
2024-04-23T11:36:29.522Z,8.73
2024-04-23T11:38:42.049Z,8.75
2024-04-23T11:40:48.208Z,8.73
2024-04-23T11:42:53.108Z,8.75
2024-04-23T11:44:59.998Z,8.77
2024-04-23T11:47:02.720Z,8.82
2024-04-23T11:49:07.565Z,8.88
2024-04-23T11:51:10.649Z,8.91
2024-04-23T11:53:15.649Z,8.99
2024-04-23T11:55:19.336Z,9.05
2024-04-23T11:57:24.998Z,9.12
2024-04-23T11:59:33.108Z,9.20
2024-04-23T12:01:39.873Z,9.29
2024-04-23T12:03:42.289Z,9.38
2024-04-23T12:05:45.097Z,9.45
2024-04-23T12:07:50.613Z,9.47
2024-04-23T12:09:54.809Z,9.47
2024-04-23T12:12:00.247Z,9.47
2024-04-23T12:14:02.569Z,9.44
2024-04-23T12:16:13.060Z,9.39
2024-04-23T12:18:15.750Z,9.36
2024-04-23T12:20:21.198Z,9.34
2024-04-23T12:22:23.491Z,9.38
2024-04-23T12:24:31.005Z,9.48
2024-04-23T12:26:34.062Z,9.64
2024-04-23T12:28:40.899Z,9.82
2024-04-23T12:30:44.040Z,10.00
2024-04-23T12:32:53.216Z,10.15
2024-04-23T12:34:56.968Z,10.31
2024-04-23T12:37:02.223Z,10.48
2024-04-23T12:39:11.663Z,10.64
2024-04-23T12:41:19.288Z,10.72
2024-04-23T12:43:23.006Z,10.73
2024-04-23T12:45:27.932Z,10.72
2024-04-23T12:47:30.499Z,10.70
2024-04-23T12:49:39.910Z,10.65
2024-04-23T12:51:42.277Z,10.60
2024-04-23T12:53:47.040Z,10.61
2024-04-23T12:55:49.283Z,10.63
2024-04-23T12:57:54.158Z,10.63
2024-04-23T12:59:56.358Z,10.58
2024-04-23T13:02:01.437Z,10.52
2024-04-23T13:04:03.679Z,10.46
2024-04-23T13:06:11.191Z,10.41
2024-04-23T13:08:18.620Z,10.37
2024-04-23T13:10:28.542Z,10.37
2024-04-23T13:12:32.707Z,10.35
2024-04-23T13:14:37.597Z,10.32
2024-04-23T13:16:46.556Z,10.27
2024-04-23T13:18:53.844Z,10.19
2024-04-23T13:20:56.166Z,10.16
2024-04-23T13:23:03.852Z,10.13
2024-04-23T13:25:09.136Z,10.10
2024-04-23T13:27:13.927Z,10.02
2024-04-23T13:29:16.264Z,9.94
2024-04-23T13:31:21.205Z,9.85
2024-04-23T13:33:23.730Z,9.78
2024-04-23T13:35:28.709Z,9.69
2024-04-23T13:37:31.014Z,9.63
2024-04-23T13:39:40.113Z,9.56
2024-04-23T13:41:42.484Z,9.49
2024-04-23T13:43:47.534Z,9.39
2024-04-23T13:45:49.902Z,9.30
2024-04-23T13:47:54.813Z,9.23
2024-04-23T13:49:57.058Z,9.18
2024-04-23T13:52:01.926Z,9.17
2024-04-23T13:54:04.424Z,9.18
2024-04-23T13:56:12.614Z,9.22
2024-04-23T13:58:14.973Z,9.27
2024-04-23T14:00:20.177Z,9.33
2024-04-23T14:02:23.821Z,9.39
2024-04-23T14:04:28.962Z,9.43
2024-04-23T14:06:31.395Z,9.48
2024-04-23T14:08:36.278Z,9.48
2024-04-23T14:10:38.613Z,9.48
2024-04-23T14:12:47.445Z,9.48
2024-04-23T14:14:49.656Z,9.48
2024-04-23T14:16:54.712Z,9.50
2024-04-23T14:18:56.943Z,9.55
2024-04-23T14:21:03.454Z,9.60
2024-04-23T14:23:05.927Z,9.69
2024-04-23T14:25:11.126Z,9.76
2024-04-23T14:27:13.438Z,9.84
2024-04-23T14:29:21.036Z,9.95
2024-04-23T14:31:23.356Z,10.07
2024-04-23T14:33:28.258Z,10.16
2024-04-23T14:35:30.439Z,10.21
2024-04-23T14:37:35.260Z,10.29
2024-04-23T14:39:37.468Z,10.38
2024-04-23T14:41:44.076Z,10.44
2024-04-23T14:43:49.915Z,10.48
2024-04-23T14:45:57.523Z,10.46
2024-04-23T14:48:01.310Z,10.45
2024-04-23T14:50:08.543Z,10.44
2024-04-23T14:52:11.167Z,10.38
2024-04-23T14:54:16.103Z,10.33
2024-04-23T14:56:19.446Z,10.29
2024-04-23T14:58:24.309Z,10.24
2024-04-23T15:00:26.522Z,10.18
2024-04-23T15:02:33.999Z,10.13
2024-04-23T15:04:36.307Z,10.07
2024-04-23T15:06:41.750Z,9.98
2024-04-23T15:08:44.070Z,9.94
2024-04-23T15:10:49.596Z,9.91
2024-04-23T15:12:51.770Z,9.86
2024-04-23T15:14:57.506Z,9.83
2024-04-23T15:17:00.192Z,9.81
2024-04-23T15:19:07.764Z,9.81
2024-04-23T15:21:11.500Z,9.82
2024-04-23T15:23:16.658Z,9.84
2024-04-23T15:25:18.821Z,9.86
2024-04-23T15:27:23.724Z,9.87
2024-04-23T15:29:25.875Z,9.84
2024-04-23T15:31:30.667Z,9.80
2024-04-23T15:33:34.797Z,9.75
2024-04-23T15:35:42.510Z,9.70
2024-04-23T15:37:44.685Z,9.67
2024-04-23T15:39:49.601Z,9.62
2024-04-23T15:41:51.790Z,9.58
2024-04-23T15:43:56.599Z,9.55
2024-04-23T15:45:59.432Z,9.53
2024-04-23T15:48:04.312Z,9.49
2024-04-23T15:50:07.780Z,9.44
2024-04-23T15:52:15.255Z,9.39
2024-04-23T15:54:17.533Z,9.35
2024-04-23T15:56:22.408Z,9.31
2024-04-23T15:58:24.736Z,9.24
2024-04-23T16:00:30.122Z,9.19
2024-04-23T16:02:33.763Z,9.16
2024-04-23T16:04:39.682Z,9.11
2024-04-23T16:06:41.851Z,9.07
2024-04-23T16:08:49.584Z,9.00
2024-04-23T16:10:51.887Z,8.93
2024-04-23T16:12:56.677Z,8.86
2024-04-23T16:14:58.870Z,8.79
2024-04-23T16:17:03.738Z,8.73
2024-04-23T16:19:06.188Z,8.70
2024-04-23T16:21:12.395Z,8.70
2024-04-23T16:23:14.819Z,8.69
2024-04-23T16:25:22.850Z,8.72
2024-04-23T16:27:25.276Z,8.77
2024-04-23T16:29:30.737Z,8.82
2024-04-23T16:31:33.070Z,8.88
2024-04-23T16:33:39.204Z,8.90
2024-04-23T16:35:41.665Z,8.92
2024-04-23T16:37:46.486Z,8.94
2024-04-23T16:39:50.681Z,8.99
2024-04-23T16:41:58.613Z,9.04
2024-04-23T16:44:00.961Z,9.07
2024-04-23T16:46:06.811Z,9.09
2024-04-23T16:48:09.684Z,9.12
2024-04-23T16:50:14.995Z,9.13
2024-04-23T16:52:18.283Z,9.13
2024-04-23T16:54:24.558Z,9.15
2024-04-23T16:56:27.151Z,9.21
2024-04-23T16:58:38.671Z,9.23
2024-04-23T17:01:50.934Z,9.23
2024-04-23T17:03:57.854Z,9.24
2024-04-23T17:06:01.330Z,9.24
2024-04-23T17:08:07.046Z,9.19
2024-04-23T17:10:09.506Z,9.14
2024-04-23T17:12:14.466Z,9.10
2024-04-23T17:14:20.341Z,9.05
2024-04-23T17:16:25.454Z,8.99
2024-04-23T17:18:28.095Z,8.94
2024-04-23T17:20:33.531Z,8.90
2024-04-23T17:22:35.926Z,8.86
2024-04-23T17:24:40.760Z,8.81
2024-04-23T17:26:43.040Z,8.76
2024-04-23T17:28:48.997Z,8.71
2024-04-23T17:30:53.905Z,8.65
2024-04-23T17:32:58.864Z,8.59
2024-04-23T17:35:01.269Z,8.54
2024-04-23T17:37:07.939Z,8.48
2024-04-23T17:39:10.064Z,8.44
2024-04-23T17:41:15.652Z,8.39
2024-04-23T17:43:18.350Z,8.35
2024-04-23T17:45:29.659Z,8.29
2024-04-23T17:47:38.870Z,8.22
2024-04-23T17:49:45.372Z,8.17
2024-04-23T17:51:47.544Z,8.11
2024-04-23T17:53:54.491Z,8.06
2024-04-23T17:56:00.652Z,8.00
2024-04-23T17:58:05.532Z,7.97
2024-04-23T18:00:09.380Z,7.95
2024-04-23T18:02:20.774Z,7.92
2024-04-23T18:04:26.779Z,7.89
2024-04-23T18:06:32.100Z,7.86
2024-04-23T18:08:35.617Z,7.80
2024-04-23T18:10:41.888Z,7.74
2024-04-23T18:12:47.946Z,7.69
2024-04-23T18:14:54.678Z,7.60
2024-04-23T18:16:57.660Z,7.47
2024-04-23T18:19:02.515Z,7.25
2024-04-23T18:21:08.386Z,6.97
2024-04-23T18:23:13.420Z,6.71
2024-04-23T18:25:16.674Z,6.44
2024-04-23T18:27:20.866Z,6.15
2024-04-23T18:29:25.687Z,5.90
2024-04-23T18:31:27.963Z,5.69
2024-04-23T18:33:33.462Z,5.54
2024-04-23T18:35:35.725Z,5.42
2024-04-23T18:37:44.873Z,5.33
2024-04-23T18:39:47.147Z,5.25
2024-04-23T18:41:51.961Z,5.18
2024-04-23T18:43:54.782Z,5.11
2024-04-23T18:46:02.006Z,5.07
2024-04-23T18:48:04.991Z,5.02
2024-04-23T18:50:10.761Z,4.98
2024-04-23T18:52:12.903Z,4.98
2024-04-23T18:54:20.288Z,4.98
2024-04-23T18:56:22.429Z,4.97
2024-04-23T18:58:27.330Z,4.96
2024-04-23T19:00:30.047Z,4.96
2024-04-23T19:02:35.190Z,4.95
2024-04-23T19:04:37.429Z,4.97
2024-04-23T19:06:44.199Z,4.96
2024-04-23T19:08:48.772Z,4.96
2024-04-23T19:10:56.241Z,4.95
2024-04-23T19:12:58.473Z,4.93
2024-04-23T19:15:03.234Z,4.92
2024-04-23T19:17:05.706Z,4.91
2024-04-23T19:19:10.658Z,4.92
2024-04-23T19:21:15.902Z,4.91
2024-04-23T19:23:20.684Z,4.91
2024-04-23T19:25:23.315Z,4.90
2024-04-23T19:27:30.863Z,4.90
2024-04-23T19:29:38.738Z,4.90
2024-04-23T19:31:43.586Z,4.90
2024-04-23T19:33:45.926Z,4.90
2024-04-23T19:35:52.078Z,4.90
2024-04-23T19:37:55.296Z,4.88
2024-04-23T19:40:00.697Z,4.87
2024-04-23T19:42:02.879Z,4.85
2024-04-23T19:44:10.374Z,4.85
2024-04-23T19:46:13.733Z,4.84
2024-04-23T19:48:18.578Z,4.83
2024-04-23T19:50:20.883Z,4.83
2024-04-23T19:52:25.811Z,4.83
2024-04-23T19:54:29.340Z,4.83
2024-04-23T19:57:00.309Z,4.84
2024-04-23T19:59:05.051Z,4.83
2024-04-23T20:01:14.251Z,4.83
2024-04-23T20:03:19.648Z,4.84
2024-04-23T20:05:22.020Z,4.83
2024-04-23T20:07:27.007Z,4.82
2024-04-23T20:09:36.884Z,4.80
2024-04-23T20:11:41.821Z,4.79
2024-04-23T20:13:46.685Z,4.79
2024-04-23T20:15:52.158Z,4.78
2024-04-23T20:17:59.556Z,4.77
2024-04-23T20:20:04.448Z,4.76
2024-04-23T20:22:09.419Z,4.77
2024-04-23T20:24:11.543Z,4.77
2024-04-23T20:26:17.271Z,4.79
2024-04-23T20:28:23.157Z,4.80
2024-04-23T20:30:27.928Z,4.79
2024-04-23T20:32:32.638Z,4.81
2024-04-23T20:34:40.047Z,4.82
2024-04-23T20:36:42.153Z,4.81
2024-04-23T20:38:46.897Z,4.82
2024-04-23T20:40:51.660Z,4.81
2024-04-23T20:42:56.623Z,4.80
2024-04-23T20:45:01.418Z,4.78
2024-04-23T20:47:06.341Z,4.77
2024-04-23T20:49:08.584Z,4.74
2024-04-23T20:51:16.020Z,4.73
2024-04-23T20:53:20.873Z,4.71
2024-04-23T20:55:25.698Z,4.69
2024-04-23T20:57:27.836Z,4.69
2024-04-23T20:59:32.633Z,4.70
2024-04-23T21:01:37.360Z,4.70
2024-04-23T21:03:42.741Z,4.70
2024-04-23T21:05:47.535Z,4.68
2024-04-23T21:07:52.336Z,4.66
2024-04-23T21:09:57.252Z,4.65
2024-04-23T21:12:02.115Z,4.62
2024-04-23T21:14:07.278Z,4.62
2024-04-23T21:16:12.160Z,4.62
2024-04-23T21:18:14.365Z,4.63
2024-04-23T21:20:19.184Z,4.61
2024-04-23T21:22:21.335Z,4.61
2024-04-23T21:24:28.728Z,4.61
2024-04-23T21:26:30.860Z,4.60
2024-04-23T21:28:35.782Z,4.59
2024-04-23T21:30:40.592Z,4.58
2024-04-23T21:32:45.613Z,4.57
2024-04-23T21:34:50.598Z,4.56
2024-04-23T21:36:55.337Z,4.53
2024-04-23T21:39:00.096Z,4.52
2024-04-23T21:41:11.726Z,4.49
2024-04-23T21:43:16.530Z,4.48
2024-04-23T21:45:21.316Z,4.44
2024-04-23T21:47:26.281Z,4.43
2024-04-23T21:49:28.535Z,4.41
2024-04-23T21:51:35.767Z,4.38
2024-04-23T21:53:39.301Z,4.37
2024-04-23T21:55:44.216Z,4.36
2024-04-23T21:57:48.982Z,4.35
2024-04-23T21:59:53.783Z,4.35
2024-04-23T22:01:55.968Z,4.35
2024-04-23T22:04:00.768Z,4.35
2024-04-23T22:06:03.186Z,4.34
2024-04-23T22:08:08.172Z,4.33
2024-04-23T22:10:13.010Z,4.30
2024-04-23T22:12:17.821Z,4.25
2024-04-23T22:14:25.314Z,4.23
2024-04-23T22:16:27.558Z,4.19
2024-04-23T22:18:32.493Z,4.17
2024-04-23T22:20:35.177Z,4.18
2024-04-23T22:22:39.955Z,4.18
2024-04-23T22:24:44.750Z,4.17
2024-04-23T22:26:47.065Z,4.15
2024-04-23T22:28:51.919Z,4.14
2024-04-23T22:30:56.742Z,4.12
2024-04-23T22:33:01.605Z,4.12
2024-04-23T22:35:06.839Z,4.12
2024-04-23T22:37:11.657Z,4.11
2024-04-23T22:39:16.440Z,4.10
2024-04-23T22:41:21.303Z,4.10
2024-04-23T22:43:26.149Z,4.10
2024-04-23T22:45:29.371Z,4.11
2024-04-23T22:47:37.000Z,4.09
2024-04-23T22:49:39.397Z,4.07
2024-04-23T22:51:48.565Z,4.05
2024-04-23T22:53:53.433Z,4.05
2024-04-23T22:55:55.653Z,4.05
2024-04-23T22:58:00.413Z,4.06
2024-04-23T23:00:05.315Z,4.06
2024-04-23T23:02:07.686Z,4.06
2024-04-23T23:04:15.128Z,4.07
2024-04-23T23:06:19.883Z,4.08
2024-04-23T23:08:22.100Z,4.09
2024-04-23T23:10:26.897Z,4.10
2024-04-23T23:12:31.649Z,4.09
2024-04-23T23:14:33.803Z,4.10
2024-04-23T23:16:38.561Z,4.09
2024-04-23T23:18:43.327Z,4.09
2024-04-23T23:20:48.279Z,4.09
2024-04-23T23:22:53.046Z,4.10
2024-04-23T23:24:57.876Z,4.08
2024-04-23T23:27:02.733Z,4.08
2024-04-23T23:29:05.022Z,4.06
2024-04-23T23:31:09.938Z,4.05
2024-04-23T23:33:12.250Z,4.03
2024-04-23T23:35:17.424Z,4.05
2024-04-23T23:37:24.975Z,4.05
2024-04-23T23:39:29.733Z,4.06
2024-04-23T23:41:31.873Z,4.07
2024-04-23T23:43:36.664Z,4.06
2024-04-23T23:45:38.800Z,4.06
2024-04-23T23:47:43.943Z,4.05
2024-04-23T23:49:48.981Z,4.05
2024-04-23T23:51:53.789Z,4.05
2024-04-23T23:54:01.199Z,4.05
2024-04-23T23:56:06.165Z,4.06
2024-04-23T23:58:08.543Z,4.05
